CYMX/YMX METAR and TAF weather

Enter ICAO airport designator
Station Type Date Time Source
CYMX METAR 2019/02/23 17:00 UTC NOAA

CYMX 231700Z 14004KT 45SM FEW030 SCT240 M01/M09 A3043 RMK CU1CI3 CU TR SLP312


Station Type Date Time Source
CYMX Decoded METAR 2019/02/23 17:00 UTC NOAA

Montreal / Mirabel, Canada (CYMX) 45-41N 074-02W
Feb 23, 2019 - 12:00 PM EST / 2019.02.23 1700 UTC
Wind: from the SE (140 degrees) at 5 MPH (4 KT):0
Visibility: 45 mile(s):0
Sky conditions: partly cloudy
Temperature: 30 F (-1 C)
Windchill: 24 F (-4 C):1
Dew Point: 15 F (-9 C)
Relative Humidity: 54%
Pressure (altimeter): 30.43 in. Hg (1030 hPa)
ob: CYMX 231700Z 14004KT 45SM FEW030 SCT240 M01/M09 A3043 RMK CU1CI3 CU TR SLP312
cycle: 17

Station Type Date Time Source
CYMX TAF 2019/02/23 18:42 UTC NOAA

TAF CYMX 231738Z 2318/2418 VRB03KT P6SM FEW040 SCT120
FM232200 05005KT P6SM BKN120
BECMG 2401/2403 06010KT
FM240800 07012KT 5SM -SN OVC070
FM241100 08015G30KT 3/4SM -SN BLSN VV007 PROB30 2411/2413 3SM -PL BR
FM241300 07012G22KT 3SM -FZRA -PL OVC004
RMK NXT FCST BY 240000Z


Example: see airport list